Terminal Aerodrome Forecast
Issued by NWS

Home | Current Version | Previous Version | Text Only | Print | Product List | Glossary On
Versions: 1 2 3 4 5 6 7 8 9 10 11 12 13 14
892
FTUS43 KIND 042325
TAFHUF
TAF
KHUF 042325Z 0500/0524 27007KT P6SM OVC008
     FM050900 29005KT 5SM BR OVC008
     FM051400 VRB03KT P6SM BKN008
     FM051800 14005KT P6SM SCT035
     FM051900 14005KT P6SM BKN140=

USA.gov is the U.S. government's official web portal to all federal, state and local government web resources and services.